sensor_id;sensor_type;location;lat;lon;timestamp;pressure;altitude;pressure_sealevel;temperature;humidity
18755;BME280;35061;47.664;9.166;2022-07-23T00:00:57;101725.69;;;18.39;100.00
18755;BME280;35061;47.664;9.166;2022-07-23T00:03:25;101739.69;;;18.41;100.00
18755;BME280;35061;47.664;9.166;2022-07-23T00:05:53;101775.00;;;18.45;100.00
18755;BME280;35061;47.664;9.166;2022-07-23T00:08:21;101776.84;;;18.42;100.00
18755;BME280;35061;47.664;9.166;2022-07-23T00:10:49;101792.40;;;18.45;100.00
18755;BME280;35061;47.664;9.166;2022-07-23T00:13:17;101798.19;;;18.45;100.00
18755;BME280;35061;47.664;9.166;2022-07-23T00:15:44;101807.15;;;18.47;100.00
18755;BME280;35061;47.664;9.166;2022-07-23T00:18:12;101816.66;;;18.48;100.00
18755;BME280;35061;47.664;9.166;2022-07-23T00:20:40;101826.15;;;18.48;100.00
18755;BME280;35061;47.664;9.166;2022-07-23T00:23:08;101835.10;;;18.50;100.00
18755;BME280;35061;47.664;9.166;2022-07-23T00:25:35;101843.57;;;18.48;100.00
18755;BME280;35061;47.664;9.166;2022-07-23T00:28:04;101845.66;;;18.48;100.00
18755;BME280;35061;47.664;9.166;2022-07-23T00:30:32;101859.11;;;18.51;100.00
18755;BME280;35061;47.664;9.166;2022-07-23T00:33:03;101887.59;;;18.52;100.00
18755;BME280;35061;47.664;9.166;2022-07-23T00:35:34;101908.42;;;18.57;100.00
18755;BME280;35061;47.664;9.166;2022-07-23T00:38:02;101916.59;;;18.58;100.00
18755;BME280;35061;47.664;9.166;2022-07-23T00:40:31;101894.20;;;18.59;100.00
18755;BME280;35061;47.664;9.166;2022-07-23T00:42:58;101881.80;;;18.64;100.00
18755;BME280;35061;47.664;9.166;2022-07-23T00:45:27;101871.23;;;18.66;100.00
18755;BME280;35061;47.664;9.166;2022-07-23T00:47:55;101845.93;;;18.67;100.00
18755;BME280;35061;47.664;9.166;2022-07-23T00:50:23;101807.96;;;18.59;100.00
18755;BME280;35061;47.664;9.166;2022-07-23T00:52:51;101764.96;;;18.58;100.00
18755;BME280;35061;47.664;9.166;2022-07-23T00:55:19;101732.30;;;18.51;100.00
18755;BME280;35061;47.664;9.166;2022-07-23T00:57:47;101730.73;;;18.45;100.00
18755;BME280;35061;47.664;9.166;2022-07-23T01:00:15;101714.38;;;18.36;100.00
18755;BME280;35061;47.664;9.166;2022-07-23T01:02:43;101679.88;;;18.32;100.00
18755;BME280;35061;47.664;9.166;2022-07-23T01:05:14;101661.17;;;18.27;100.00
18755;BME280;35061;47.664;9.166;2022-07-23T01:07:42;101662.74;;;18.23;100.00
18755;BME280;35061;47.664;9.166;2022-07-23T01:10:10;101673.27;;;18.20;100.00
18755;BME280;35061;47.664;9.166;2022-07-23T01:13:07;101671.70;;;18.19;100.00
18755;BME280;35061;47.664;9.166;2022-07-23T01:15:37;101677.49;;;18.13;100.00
18755;BME280;35061;47.664;9.166;2022-07-23T01:18:06;101673.01;;;18.07;100.00
18755;BME280;35061;47.664;9.166;2022-07-23T01:20:35;101678.54;;;18.05;100.00
18755;BME280;35061;47.664;9.166;2022-07-23T01:23:03;101685.37;;;18.02;100.00
18755;BME280;35061;47.664;9.166;2022-07-23T01:25:31;101685.60;;;17.92;100.00
18755;BME280;35061;47.664;9.166;2022-07-23T01:27:59;101694.85;;;17.96;100.00
18755;BME280;35061;47.664;9.166;2022-07-23T01:30:27;101691.65;;;17.94;100.00
18755;BME280;35061;47.664;9.166;2022-07-23T01:32:55;101703.81;;;17.98;100.00
18755;BME280;35061;47.664;9.166;2022-07-23T01:35:22;101704.08;;;18.00;100.00
18755;BME280;35061;47.664;9.166;2022-07-23T01:37:50;101695.15;;;18.04;100.00
18755;BME280;35061;47.664;9.166;2022-07-23T01:40:18;101693.84;;;18.05;100.00
18755;BME280;35061;47.664;9.166;2022-07-23T01:42:48;101687.23;;;18.10;100.00
18755;BME280;35061;47.664;9.166;2022-07-23T01:45:16;101675.62;;;18.10;100.00
18755;BME280;35061;47.664;9.166;2022-07-23T01:47:44;101657.22;;;18.13;100.00
18755;BME280;35061;47.664;9.166;2022-07-23T01:50:11;101647.96;;;18.15;100.00
18755;BME280;35061;47.664;9.166;2022-07-23T01:52:39;101631.13;;;18.19;100.00
18755;BME280;35061;47.664;9.166;2022-07-23T01:55:07;101636.35;;;18.21;100.00
18755;BME280;35061;47.664;9.166;2022-07-23T01:57:43;101635.86;;;18.22;100.00
18755;BME280;35061;47.664;9.166;2022-07-23T02:00:11;101651.66;;;18.27;100.00
18755;BME280;35061;47.664;9.166;2022-07-23T02:02:39;101649.83;;;18.30;100.00
18755;BME280;35061;47.664;9.166;2022-07-23T02:05:08;101653.23;;;18.34;100.00
18755;BME280;35061;47.664;9.166;2022-07-23T02:07:35;101646.10;;;18.35;100.00
18755;BME280;35061;47.664;9.166;2022-07-23T02:10:03;101656.92;;;18.40;100.00
18755;BME280;35061;47.664;9.166;2022-07-23T02:12:31;101658.23;;;18.45;100.00
18755;BME280;35061;47.664;9.166;2022-07-23T02:14:59;101674.29;;;18.51;100.00
18755;BME280;35061;47.664;9.166;2022-07-23T02:17:27;101669.02;;;18.55;100.00
18755;BME280;35061;47.664;9.166;2022-07-23T02:19:54;101675.33;;;18.60;100.00
18755;BME280;35061;47.664;9.166;2022-07-23T02:22:22;101675.85;;;18.64;100.00
18755;BME280;35061;47.664;9.166;2022-07-23T02:24:50;101674.77;;;18.67;100.00
18755;BME280;35061;47.664;9.166;2022-07-23T02:27:18;101687.20;;;18.67;100.00
18755;BME280;35061;47.664;9.166;2022-07-23T02:29:45;101687.43;;;18.69;100.00
18755;BME280;35061;47.664;9.166;2022-07-23T02:32:13;101687.70;;;18.72;100.00
18755;BME280;35061;47.664;9.166;2022-07-23T02:34:41;101683.48;;;18.73;100.00
18755;BME280;35061;47.664;9.166;2022-07-23T02:37:09;101671.87;;;18.73;100.00
18755;BME280;35061;47.664;9.166;2022-07-23T02:39:36;101648.95;;;18.69;100.00
18755;BME280;35061;47.664;9.166;2022-07-23T02:42:04;101642.11;;;18.66;100.00
18755;BME280;35061;47.664;9.166;2022-07-23T02:44:32;101630.99;;;18.71;100.00
18755;BME280;35061;47.664;9.166;2022-07-23T02:47:00;101608.07;;;18.67;100.00
18755;BME280;35061;47.664;9.166;2022-07-23T02:49:28;101595.45;;;18.64;100.00
18755;BME280;35061;47.664;9.166;2022-07-23T02:51:56;101600.16;;;18.67;100.00
18755;BME280;35061;47.664;9.166;2022-07-23T02:54:23;101595.15;;;18.68;100.00
18755;BME280;35061;47.664;9.166;2022-07-23T02:56:51;101599.11;;;18.65;100.00
18755;BME280;35061;47.664;9.166;2022-07-23T02:59:19;101590.45;;;18.59;100.00
18755;BME280;35061;47.664;9.166;2022-07-23T03:01:47;101598.12;;;18.45;100.00
18755;BME280;35061;47.664;9.166;2022-07-23T03:04:15;101601.30;;;18.41;100.00
18755;BME280;35061;47.664;9.166;2022-07-23T03:06:43;101627.39;;;18.36;100.00
18755;BME280;35061;47.664;9.166;2022-07-23T03:09:10;101682.46;;;18.47;100.00
18755;BME280;35061;47.664;9.166;2022-07-23T03:11:38;101694.33;;;18.49;100.00
18755;BME280;35061;47.664;9.166;2022-07-23T03:14:06;101696.69;;;18.51;100.00
18755;BME280;35061;47.664;9.166;2022-07-23T03:16:35;101712.02;;;18.46;100.00
18755;BME280;35061;47.664;9.166;2022-07-23T03:19:03;101728.08;;;18.41;100.00
18755;BME280;35061;47.664;9.166;2022-07-23T03:21:32;101729.16;;;18.49;100.00
18755;BME280;35061;47.664;9.166;2022-07-23T03:24:01;101711.99;;;18.57;100.00
18755;BME280;35061;47.664;9.166;2022-07-23T03:26:28;101680.86;;;18.63;100.00
18755;BME280;35061;47.664;9.166;2022-07-23T03:28:56;101660.52;;;18.69;100.00
18755;BME280;35061;47.664;9.166;2022-07-23T03:31:24;101631.84;;;18.60;100.00
18755;BME280;35061;47.664;9.166;2022-07-23T03:33:52;101614.97;;;18.52;100.00
18755;BME280;35061;47.664;9.166;2022-07-23T03:36:20;101599.44;;;18.50;100.00
18755;BME280;35061;47.664;9.166;2022-07-23T03:38:48;101604.21;;;18.36;100.00
18755;BME280;35061;47.664;9.166;2022-07-23T03:41:16;101601.85;;;18.29;100.00
18755;BME280;35061;47.664;9.166;2022-07-23T03:43:44;101611.34;;;18.29;100.00
18755;BME280;35061;47.664;9.166;2022-07-23T03:46:12;101620.59;;;18.27;100.00
18755;BME280;35061;47.664;9.166;2022-07-23T03:48:39;101644.53;;;18.28;100.00
18755;BME280;35061;47.664;9.166;2022-07-23T03:51:07;101657.97;;;18.25;100.00
18755;BME280;35061;47.664;9.166;2022-07-23T03:53:35;101666.14;;;18.21;100.00
18755;BME280;35061;47.664;9.166;2022-07-23T03:56:03;101669.58;;;18.25;100.00
18755;BME280;35061;47.664;9.166;2022-07-23T03:58:31;101653.48;;;18.24;100.00
18755;BME280;35061;47.664;9.166;2022-07-23T04:00:59;101652.18;;;18.25;100.00
18755;BME280;35061;47.664;9.166;2022-07-23T04:03:26;101651.40;;;18.31;100.00
18755;BME280;35061;47.664;9.166;2022-07-23T04:05:54;101657.70;;;18.35;100.00
18755;BME280;35061;47.664;9.166;2022-07-23T04:08:22;101674.05;;;18.26;100.00
18755;BME280;35061;47.664;9.166;2022-07-23T04:10:50;101689.62;;;18.23;100.00
18755;BME280;35061;47.664;9.166;2022-07-23T04:13:18;101708.33;;;18.28;100.00
18755;BME280;35061;47.664;9.166;2022-07-23T04:15:46;101717.52;;;18.26;100.00
18755;BME280;35061;47.664;9.166;2022-07-23T04:18:14;101696.98;;;18.30;100.00
18755;BME280;35061;47.664;9.166;2022-07-23T04:20:45;101703.84;;;18.33;100.00
18755;BME280;35061;47.664;9.166;2022-07-23T04:23:13;101713.85;;;18.37;100.00
18755;BME280;35061;47.664;9.166;2022-07-23T04:25:41;101724.12;;;18.44;100.00
18755;BME280;35061;47.664;9.166;2022-07-23T04:28:09;101723.86;;;18.53;100.00
18755;BME280;35061;47.664;9.166;2022-07-23T04:30:37;101705.13;;;18.66;100.00
18755;BME280;35061;47.664;9.166;2022-07-23T04:33:05;101696.39;;;18.72;100.00
18755;BME280;35061;47.664;9.166;2022-07-23T04:35:34;101740.96;;;18.74;100.00
18755;BME280;35061;47.664;9.166;2022-07-23T04:38:03;101768.13;;;18.65;100.00
18755;BME280;35061;47.664;9.166;2022-07-23T04:40:32;101815.32;;;18.60;100.00
18755;BME280;35061;47.664;9.166;2022-07-23T04:42:59;101839.06;;;18.53;100.00
18755;BME280;35061;47.664;9.166;2022-07-23T04:45:27;101822.71;;;18.50;100.00
18755;BME280;35061;47.664;9.166;2022-07-23T04:47:55;101813.23;;;18.44;100.00
18755;BME280;35061;47.664;9.166;2022-07-23T04:50:24;101797.92;;;18.49;100.00
18755;BME280;35061;47.664;9.166;2022-07-23T04:52:51;101764.44;;;18.59;100.00
18755;BME280;35061;47.664;9.166;2022-07-23T04:55:19;101712.25;;;18.65;100.00
18755;BME280;35061;47.664;9.166;2022-07-23T04:57:47;101709.34;;;18.65;100.00
18755;BME280;35061;47.664;9.166;2022-07-23T05:00:15;101737.56;;;18.64;100.00
18755;BME280;35061;47.664;9.166;2022-07-23T05:02:43;101733.34;;;18.65;100.00
18755;BME280;35061;47.664;9.166;2022-07-23T05:05:11;101776.31;;;18.67;100.00
18755;BME280;35061;47.664;9.166;2022-07-23T05:07:38;101807.44;;;18.55;100.00
18755;BME280;35061;47.664;9.166;2022-07-23T05:10:06;101782.66;;;18.54;100.00
18755;BME280;35061;47.664;9.166;2022-07-23T05:12:34;101790.57;;;18.53;100.00
18755;BME280;35061;47.664;9.166;2022-07-23T05:15:02;101792.40;;;18.45;100.00
18755;BME280;35061;47.664;9.166;2022-07-23T05:17:30;101809.27;;;18.41;100.00
18755;BME280;35061;47.664;9.166;2022-07-23T05:19:57;101815.06;;;18.41;100.00
18755;BME280;35061;47.664;9.166;2022-07-23T05:22:26;101806.10;;;18.39;100.00
18755;BME280;35061;47.664;9.166;2022-07-23T05:24:54;101829.32;;;18.39;100.00
18755;BME280;35061;47.664;9.166;2022-07-23T05:27:22;101826.41;;;18.33;100.00
18755;BME280;35061;47.664;9.166;2022-07-23T05:29:50;101836.67;;;18.29;100.00
18755;BME280;35061;47.664;9.166;2022-07-23T05:32:18;101843.21;;;18.18;100.00
18755;BME280;35061;47.664;9.166;2022-07-23T05:34:45;101801.29;;;18.07;100.00
18755;BME280;35061;47.664;9.166;2022-07-23T05:37:13;101786.80;;;18.07;100.00
18755;BME280;35061;47.664;9.166;2022-07-23T05:39:41;101791.84;;;18.18;100.00
18755;BME280;35061;47.664;9.166;2022-07-23T05:42:09;101780.27;;;18.18;100.00
18755;BME280;35061;47.664;9.166;2022-07-23T05:44:36;101775.00;;;18.34;100.00
18755;BME280;35061;47.664;9.166;2022-07-23T05:47:04;101756.52;;;18.37;100.00
18755;BME280;35061;47.664;9.166;2022-07-23T05:49:32;101747.83;;;18.42;100.00
18755;BME280;35061;47.664;9.166;2022-07-23T05:52:03;101764.96;;;18.52;100.00
18755;BME280;35061;47.664;9.166;2022-07-23T05:54:34;101771.30;;;18.56;100.00
18755;BME280;35061;47.664;9.166;2022-07-23T05:57:02;101797.40;;;18.62;100.00
18755;BME280;35061;47.664;9.166;2022-07-23T05:59:30;101803.74;;;18.66;100.00
18755;BME280;35061;47.664;9.166;2022-07-23T06:01:58;101794.52;;;18.73;100.00
18755;BME280;35061;47.664;9.166;2022-07-23T06:04:26;101787.36;;;18.80;100.00
18755;BME280;35061;47.664;9.166;2022-07-23T06:06:53;101796.32;;;18.88;100.00
18755;BME280;35061;47.664;9.166;2022-07-23T06:09:21;101796.32;;;18.93;100.00
18755;BME280;35061;47.664;9.166;2022-07-23T06:11:49;101793.18;;;19.03;100.00
18755;BME280;35061;47.664;9.166;2022-07-23T06:14:17;101786.84;;;19.10;100.00
18755;BME280;35061;47.664;9.166;2022-07-23T06:16:44;101774.94;;;19.14;100.00
18755;BME280;35061;47.664;9.166;2022-07-23T06:19:12;101763.55;;;19.21;100.00
18755;BME280;35061;47.664;9.166;2022-07-23T06:21:40;101769.09;;;19.31;100.00
18755;BME280;35061;47.664;9.166;2022-07-23T06:24:13;101769.31;;;19.38;100.00
18755;BME280;35061;47.664;9.166;2022-07-23T06:26:41;101778.50;;;19.48;100.00
18755;BME280;35061;47.664;9.166;2022-07-23T06:29:08;101771.90;;;19.53;100.00
18755;BME280;35061;47.664;9.166;2022-07-23T06:31:36;101769.48;;;19.58;100.00
18755;BME280;35061;47.664;9.166;2022-07-23T06:34:05;101778.47;;;19.65;100.00
18755;BME280;35061;47.664;9.166;2022-07-23T06:36:32;101768.92;;;19.71;100.00
18755;BME280;35061;47.664;9.166;2022-07-23T06:39:01;101763.85;;;19.77;100.00
18755;BME280;35061;47.664;9.166;2022-07-23T06:41:30;101782.33;;;19.79;100.00
18755;BME280;35061;47.664;9.166;2022-07-23T06:43:58;101797.89;;;19.82;100.00
18755;BME280;35061;47.664;9.166;2022-07-23T06:46:26;101804.23;;;19.86;100.00
18755;BME280;35061;47.664;9.166;2022-07-23T06:48:54;101785.47;;;19.87;100.00
18755;BME280;35061;47.664;9.166;2022-07-23T06:51:22;101786.77;;;19.98;100.00
18755;BME280;35061;47.664;9.166;2022-07-23T06:53:49;101799.95;;;19.99;100.00
18755;BME280;35061;47.664;9.166;2022-07-23T06:56:17;101795.47;;;19.98;100.00
18755;BME280;35061;47.664;9.166;2022-07-23T06:58:45;101824.80;;;20.00;100.00
18755;BME280;35061;47.664;9.166;2022-07-23T07:01:13;101826.87;;;20.05;100.00
18755;BME280;35061;47.664;9.166;2022-07-23T07:03:41;101839.06;;;20.03;100.00
18755;BME280;35061;47.664;9.166;2022-07-23T07:06:08;101840.66;;;19.99;100.00
18755;BME280;35061;47.664;9.166;2022-07-23T07:08:36;101843.80;;;20.01;100.00
18755;BME280;35061;47.664;9.166;2022-07-23T07:11:04;101844.06;;;20.03;100.00
18755;BME280;35061;47.664;9.166;2022-07-23T07:13:32;101844.78;;;20.15;100.00
18755;BME280;35061;47.664;9.166;2022-07-23T07:16:00;101845.08;;;20.11;100.00
18755;BME280;35061;47.664;9.166;2022-07-23T07:18:27;101854.01;;;20.19;100.00
18755;BME280;35061;47.664;9.166;2022-07-23T07:20:56;101853.16;;;20.30;99.96
18755;BME280;35061;47.664;9.166;2022-07-23T07:23:24;101853.38;;;20.38;99.20
18755;BME280;35061;47.664;9.166;2022-07-23T07:25:52;101840.56;;;20.52;98.33
18755;BME280;35061;47.664;9.166;2022-07-23T07:28:20;101852.37;;;20.66;97.22
18755;BME280;35061;47.664;9.166;2022-07-23T07:30:47;101856.10;;;20.60;96.62
18755;BME280;35061;47.664;9.166;2022-07-23T07:33:15;101861.16;;;20.54;97.28
18755;BME280;35061;47.664;9.166;2022-07-23T07:35:43;101869.18;;;20.48;97.76
18755;BME280;35061;47.664;9.166;2022-07-23T07:38:11;101868.36;;;20.47;98.10
18755;BME280;35061;47.664;9.166;2022-07-23T07:40:38;101858.88;;;20.47;98.10
18755;BME280;35061;47.664;9.166;2022-07-23T07:43:06;101864.96;;;20.43;98.47
18755;BME280;35061;47.664;9.166;2022-07-23T07:45:34;101862.84;;;20.44;98.79
18755;BME280;35061;47.664;9.166;2022-07-23T07:48:02;101862.57;;;20.42;99.39
18755;BME280;35061;47.664;9.166;2022-07-23T07:50:29;101871.08;;;20.40;98.44
18755;BME280;35061;47.664;9.166;2022-07-23T07:52:57;101871.17;;;20.22;98.92
18755;BME280;35061;47.664;9.166;2022-07-23T07:55:25;101866.76;;;20.10;99.46
18755;BME280;35061;47.664;9.166;2022-07-23T07:57:54;101890.04;;;20.04;100.00
18755;BME280;35061;47.664;9.166;2022-07-23T08:00:22;101890.34;;;20.01;100.00
18755;BME280;35061;47.664;9.166;2022-07-23T08:02:51;101899.85;;;19.96;98.10
18755;BME280;35061;47.664;9.166;2022-07-23T08:05:25;101890.59;;;19.91;99.23
18755;BME280;35061;47.664;9.166;2022-07-23T08:07:55;101872.09;;;19.89;100.00
18755;BME280;35061;47.664;9.166;2022-07-23T08:10:25;101879.80;;;19.86;99.95
18755;BME280;35061;47.664;9.166;2022-07-23T08:12:55;101882.16;;;19.88;98.99
18755;BME280;35061;47.664;9.166;2022-07-23T08:15:25;101878.73;;;19.89;99.79
18755;BME280;35061;47.664;9.166;2022-07-23T08:17:53;101872.38;;;19.85;100.00
18755;BME280;35061;47.664;9.166;2022-07-23T08:20:22;101877.38;;;19.90;100.00
18755;BME280;35061;47.664;9.166;2022-07-23T08:25:24;101883.44;;;19.92;100.00
18755;BME280;35061;47.664;9.166;2022-07-23T08:27:53;101878.17;;;19.91;99.56
18755;BME280;35061;47.664;9.166;2022-07-23T08:30:22;101886.34;;;19.92;100.00
18755;BME280;35061;47.664;9.166;2022-07-23T08:32:58;101894.29;;;19.92;100.00
18755;BME280;35061;47.664;9.166;2022-07-23T08:35:35;101899.03;;;20.01;99.99
18755;BME280;35061;47.664;9.166;2022-07-23T08:38:06;101896.12;;;20.01;98.02
18755;BME280;35061;47.664;9.166;2022-07-23T08:40:39;101886.12;;;19.96;98.98
18755;BME280;35061;47.664;9.166;2022-07-23T08:43:12;101889.26;;;20.04;100.00
18755;BME280;35061;47.664;9.166;2022-07-23T08:45:42;101885.79;;;20.05;100.00
18755;BME280;35061;47.664;9.166;2022-07-23T08:48:15;101889.78;;;20.02;100.00
18755;BME280;35061;47.664;9.166;2022-07-23T08:50:46;101890.04;;;20.04;100.00
18755;BME280;35061;47.664;9.166;2022-07-23T08:53:16;101890.34;;;20.01;100.00
18755;BME280;35061;47.664;9.166;2022-07-23T08:55:45;101884.45;;;20.12;100.00
18755;BME280;35061;47.664;9.166;2022-07-23T08:58:15;101882.62;;;20.09;100.00
18755;BME280;35061;47.664;9.166;2022-07-23T09:00:43;101884.71;;;20.14;100.00
18755;BME280;35061;47.664;9.166;2022-07-23T09:03:22;101871.73;;;20.15;100.00
18755;BME280;35061;47.664;9.166;2022-07-23T09:05:51;101879.38;;;20.24;100.00
18755;BME280;35061;47.664;9.166;2022-07-23T09:08:21;101885.40;;;20.32;100.00
18755;BME280;35061;47.664;9.166;2022-07-23T09:10:50;101876.66;;;20.32;100.00
18755;BME280;35061;47.664;9.166;2022-07-23T09:13:33;101886.73;;;20.31;100.00
18755;BME280;35061;47.664;9.166;2022-07-23T09:16:12;101888.30;;;20.32;100.00
18755;BME280;35061;47.664;9.166;2022-07-23T09:18:46;101900.99;;;20.34;100.00
18755;BME280;35061;47.664;9.166;2022-07-23T09:21:18;101901.78;;;20.35;100.00
18755;BME280;35061;47.664;9.166;2022-07-23T09:24:08;101902.83;;;20.38;100.00
18755;BME280;35061;47.664;9.166;2022-07-23T09:26:41;101906.49;;;20.38;100.00
18755;BME280;35061;47.664;9.166;2022-07-23T09:29:20;101905.18;;;20.39;100.00
18755;BME280;35061;47.664;9.166;2022-07-23T09:32:00;101911.49;;;20.43;100.00
18755;BME280;35061;47.664;9.166;2022-07-23T09:34:31;101910.19;;;20.44;100.00
18755;BME280;35061;47.664;9.166;2022-07-23T09:37:14;101904.07;;;20.48;100.00
18755;BME280;35061;47.664;9.166;2022-07-23T09:39:43;101894.78;;;20.49;100.00
18755;BME280;35061;47.664;9.166;2022-07-23T09:42:25;101897.17;;;20.51;100.00
18755;BME280;35061;47.664;9.166;2022-07-23T09:44:55;101902.70;;;20.55;99.54
18755;BME280;35061;47.664;9.166;2022-07-23T09:47:27;101899.27;;;20.56;100.00
18755;BME280;35061;47.664;9.166;2022-07-23T09:50:02;101890.23;;;20.60;100.00
18755;BME280;35061;47.664;9.166;2022-07-23T09:52:33;101893.41;;;20.62;99.48
18755;BME280;35061;47.664;9.166;2022-07-23T09:55:04;101898.67;;;20.63;99.14
18755;BME280;35061;47.664;9.166;2022-07-23T09:57:33;101881.73;;;20.68;99.78
18755;BME280;35061;47.664;9.166;2022-07-23T10:00:05;101880.63;;;20.71;100.00
18755;BME280;35061;47.664;9.166;2022-07-23T10:02:34;101889.32;;;20.76;100.00
18755;BME280;35061;47.664;9.166;2022-07-23T10:05:03;101894.59;;;20.84;100.00
18755;BME280;35061;47.664;9.166;2022-07-23T10:07:33;101900.90;;;20.88;99.32
18755;BME280;35061;47.664;9.166;2022-07-23T10:10:03;101895.57;;;20.92;99.89
18755;BME280;35061;47.664;9.166;2022-07-23T10:12:32;101897.66;;;20.97;99.77
18755;BME280;35061;47.664;9.166;2022-07-23T10:15:18;101879.91;;;21.01;99.51
18755;BME280;35061;47.664;9.166;2022-07-23T10:17:48;101883.53;;;21.07;99.53
18755;BME280;35061;47.664;9.166;2022-07-23T10:20:16;101887.72;;;21.12;99.60
18755;BME280;35061;47.664;9.166;2022-07-23T10:22:50;101896.16;;;21.15;98.69
18755;BME280;35061;47.664;9.166;2022-07-23T10:25:40;101887.72;;;21.12;94.68
18755;BME280;35061;47.664;9.166;2022-07-23T10:28:30;101893.80;;;21.14;95.01
18755;BME280;35061;47.664;9.166;2022-07-23T10:31:13;101884.02;;;21.11;93.79
18755;BME280;35061;47.664;9.166;2022-07-23T10:34:16;101884.58;;;21.10;95.24
18755;BME280;35061;47.664;9.166;2022-07-23T10:36:55;101898.54;;;21.17;95.39
18755;BME280;35061;47.664;9.166;2022-07-23T10:39:29;101900.34;;;21.20;94.22
18755;BME280;35061;47.664;9.166;2022-07-23T10:44:42;101891.91;;;21.16;91.40
18755;BME280;35061;47.664;9.166;2022-07-23T10:47:11;101892.76;;;21.11;90.82
18755;BME280;35061;47.664;9.166;2022-07-23T10:49:45;101902.56;;;21.08;92.08
18755;BME280;35061;47.664;9.166;2022-07-23T10:57:25;101896.22;;;21.10;93.00
18755;BME280;35061;47.664;9.166;2022-07-23T11:02:34;101896.45;;;21.12;93.72
18755;BME280;35061;47.664;9.166;2022-07-23T11:05:07;101894.09;;;21.10;93.76
18755;BME280;35061;47.664;9.166;2022-07-23T11:07:39;101886.70;;;21.09;92.79
18755;BME280;35061;47.664;9.166;2022-07-23T11:10:44;101883.86;;;21.03;92.58
18755;BME280;35061;47.664;9.166;2022-07-23T11:24:12;101896.45;;;21.12;95.01
18755;BME280;35061;47.664;9.166;2022-07-23T11:32:19;101885.85;;;21.14;93.12
18755;BME280;35061;47.664;9.166;2022-07-23T11:34:49;101880.55;;;21.13;93.26
18755;BME280;35061;47.664;9.166;2022-07-23T11:37:39;101877.91;;;21.15;93.84
18755;BME280;35061;47.664;9.166;2022-07-23T11:40:10;101859.63;;;21.14;93.87
18755;BME280;35061;47.664;9.166;2022-07-23T11:42:57;101872.61;;;21.13;93.86
18755;BME280;35061;47.664;9.166;2022-07-23T11:45:52;101874.45;;;21.16;93.82
18755;BME280;35061;47.664;9.166;2022-07-23T11:48:23;101883.41;;;21.24;94.36
18755;BME280;35061;47.664;9.166;2022-07-23T11:50:52;101903.97;;;21.32;95.05
18755;BME280;35061;47.664;9.166;2022-07-23T11:53:26;101893.57;;;21.37;94.64
18755;BME280;35061;47.664;9.166;2022-07-23T11:55:54;101897.50;;;21.39;94.76
18755;BME280;35061;47.664;9.166;2022-07-23T11:58:22;101886.34;;;21.43;95.21
18755;BME280;35061;47.664;9.166;2022-07-23T12:00:50;101894.23;;;21.48;95.63
18755;BME280;35061;47.664;9.166;2022-07-23T12:03:18;101870.62;;;21.52;95.91
18755;BME280;35061;47.664;9.166;2022-07-23T12:05:46;101860.77;;;21.55;95.67
18755;BME280;35061;47.664;9.166;2022-07-23T12:08:14;101865.55;;;21.58;95.60
18755;BME280;35061;47.664;9.166;2022-07-23T12:10:44;101872.94;;;21.59;94.79
18755;BME280;35061;47.664;9.166;2022-07-23T12:13:18;101867.80;;;21.66;94.83
18755;BME280;35061;47.664;9.166;2022-07-23T12:15:52;101865.91;;;21.74;94.93
18755;BME280;35061;47.664;9.166;2022-07-23T12:18:22;101852.77;;;21.86;95.32
18755;BME280;35061;47.664;9.166;2022-07-23T12:20:52;101857.34;;;22.01;95.30
18755;BME280;35061;47.664;9.166;2022-07-23T12:23:22;101860.35;;;22.14;95.50
18755;BME280;35061;47.664;9.166;2022-07-23T12:25:51;101859.30;;;22.31;95.08
18755;BME280;35061;47.664;9.166;2022-07-23T12:28:31;101857.21;;;22.45;94.71
18755;BME280;35061;47.664;9.166;2022-07-23T12:31:05;101861.10;;;22.53;91.69
18755;BME280;35061;47.664;9.166;2022-07-23T12:33:35;101857.80;;;22.63;91.30
18755;BME280;35061;47.664;9.166;2022-07-23T12:36:06;101855.58;;;22.69;92.51
18755;BME280;35061;47.664;9.166;2022-07-23T12:38:41;101854.23;;;22.70;91.01
18755;BME280;35061;47.664;9.166;2022-07-23T12:41:09;101852.80;;;22.77;91.18
18755;BME280;35061;47.664;9.166;2022-07-23T12:43:40;101849.66;;;22.88;91.52
18755;BME280;35061;47.664;9.166;2022-07-23T12:46:16;101853.41;;;23.02;90.93
18755;BME280;35061;47.664;9.166;2022-07-23T12:51:20;101851.98;;;23.22;89.52
18755;BME280;35061;47.664;9.166;2022-07-23T12:53:56;101845.50;;;23.30;88.05
18755;BME280;35061;47.664;9.166;2022-07-23T12:56:31;101845.83;;;23.39;87.20
18755;BME280;35061;47.664;9.166;2022-07-23T13:01:36;101839.87;;;23.59;83.92
18755;BME280;35061;47.664;9.166;2022-07-23T13:06:46;101836.61;;;23.76;86.02
18755;BME280;35061;47.664;9.166;2022-07-23T13:09:22;101837.46;;;23.84;85.74
18755;BME280;35061;47.664;9.166;2022-07-23T13:11:51;101831.15;;;23.93;85.20
18755;BME280;35061;47.664;9.166;2022-07-23T13:14:24;101832.29;;;24.04;84.87
18755;BME280;35061;47.664;9.166;2022-07-23T13:16:53;101828.80;;;24.05;82.48
18755;BME280;35061;47.664;9.166;2022-07-23T13:19:23;101830.46;;;24.01;80.92
18755;BME280;35061;47.664;9.166;2022-07-23T13:21:52;101825.06;;;24.05;82.31
18755;BME280;35061;47.664;9.166;2022-07-23T13:24:21;101819.48;;;24.07;82.43
18755;BME280;35061;47.664;9.166;2022-07-23T13:26:49;101818.10;;;24.08;80.05
18755;BME280;35061;47.664;9.166;2022-07-23T13:29:18;101814.83;;;24.11;81.93
18755;BME280;35061;47.664;9.166;2022-07-23T13:31:47;101826.18;;;24.15;82.46
18755;BME280;35061;47.664;9.166;2022-07-23T13:34:17;101816.04;;;24.16;81.96